PWSweather.com
Personal Weather Stations
Station Observations
PENICUIKWS
PenicuikGB

PenicuikGB

Lat: 55.830932, Lon: -3.224533000000065

Elevation: 166

Station Type: Fine Offset

http://weather.penicuik.org

High Low Average
Temperature 83.1°F28.4°C 59.9°F15.5°C 70.7°F21.5°C
Dew Point 65.5°F18.6°C 56.2°F13.4°C 60.5°F15.8°C
Winds 5.0 mph 8.0 kmh 0.6 mph 1.0 kmh 3.0 mph SW4.8 kmh SW
Wind Gusts 10.7 mph17.2 kmh 1.6 mph2.6 kmh 5.0 mph8.0 kmh
Humidity 94% 53% 72%
Pressure 30.24 in1024.0 mb 30.19 in1022.4 mb -
Precipitation 0.00 in0.0 mm - -
Hour Temp Dew Point Humidity Winds Wind Gusts Pressure Precip Precip Rate Daily Precip Total
12:00 AM 60.8°F16.0°C 58.2°F14.6°C 91% 1.6 mph W2.6 kmh W 3.8 mph6.1 kmh 30.20 in1022.7 mb 0.00 in0.0 mm 0.00 in0.0 mm 0.00 in0.0 mm
12:15 AM 60.8°F16.0°C 58.2°F14.6°C 91% 1.8 mph WSW2.9 kmh WSW 3.1 mph5.0 kmh 30.20 in1022.7 mb 0.00 in0.0 mm 0.00 in0.0 mm 0.00 in0.0 mm
12:30 AM 60.8°F16.0°C 58.2°F14.6°C 91% 1.7 mph NW2.7 kmh NW 3.8 mph6.1 kmh 30.20 in1022.7 mb 0.00 in0.0 mm 0.00 in0.0 mm 0.00 in0.0 mm
12:45 AM 60.8°F16.0°C 58.2°F14.6°C 91% 1.6 mph WSW2.6 kmh WSW 3.1 mph5.0 kmh 30.20 in1022.7 mb 0.00 in0.0 mm 0.00 in0.0 mm 0.00 in0.0 mm
01:00 AM 61.0°F16.1°C 58.3°F14.6°C 91% 1.8 mph WNW2.9 kmh WNW 3.8 mph6.1 kmh 30.20 in1022.7 mb 0.00 in0.0 mm 0.00 in0.0 mm 0.00 in0.0 mm
01:15 AM 61.0°F16.1°C 58.3°F14.6°C 91% 2.1 mph N3.4 kmh N 3.1 mph5.0 kmh 30.20 in1022.7 mb 0.00 in0.0 mm 0.00 in0.0 mm 0.00 in0.0 mm
01:30 AM 61.2°F16.2°C 58.5°F14.7°C 91% 2.0 mph WSW3.2 kmh WSW 4.5 mph7.2 kmh 30.19 in1022.4 mb 0.00 in0.0 mm 0.00 in0.0 mm 0.00 in0.0 mm
01:45 AM 61.0°F16.1°C 58.7°F14.8°C 92% 2.1 mph NW3.4 kmh NW 3.1 mph5.0 kmh 30.19 in1022.4 mb 0.00 in0.0 mm 0.00 in0.0 mm 0.00 in0.0 mm
02:00 AM 61.0°F16.1°C 58.7°F14.8°C 92% 1.9 mph WSW3.1 kmh WSW 3.8 mph6.1 kmh 30.20 in1022.7 mb 0.00 in0.0 mm 0.00 in0.0 mm 0.00 in0.0 mm
02:15 AM 61.2°F16.2°C 58.8°F14.9°C 92% 1.8 mph WNW2.9 kmh WNW 2.2 mph3.5 kmh 30.19 in1022.4 mb 0.00 in0.0 mm 0.00 in0.0 mm 0.00 in0.0 mm
02:45 AM 60.3°F15.7°C 58.2°F14.6°C 93% 1.2 mph NE1.9 kmh NE 3.1 mph5.0 kmh 30.20 in1022.7 mb 0.00 in0.0 mm 0.00 in0.0 mm 0.00 in0.0 mm
03:00 AM 59.9°F15.5°C 57.9°F14.4°C 93% 1.5 mph N2.4 kmh N 3.1 mph5.0 kmh 30.19 in1022.4 mb 0.00 in0.0 mm 0.00 in0.0 mm 0.00 in0.0 mm
03:15 AM 60.1°F15.6°C 58.4°F14.7°C 94% 1.7 mph W2.7 kmh W 2.2 mph3.5 kmh 30.20 in1022.7 mb 0.00 in0.0 mm 0.00 in0.0 mm 0.00 in0.0 mm
03:30 AM 60.3°F15.7°C 58.2°F14.6°C 93% 1.4 mph NW2.3 kmh NW 4.5 mph7.2 kmh 30.20 in1022.7 mb 0.00 in0.0 mm 0.00 in0.0 mm 0.00 in0.0 mm
03:45 AM 60.3°F15.7°C 58.2°F14.6°C 93% 1.5 mph WNW2.4 kmh WNW 3.1 mph5.0 kmh 30.20 in1022.7 mb 0.00 in0.0 mm 0.00 in0.0 mm 0.00 in0.0 mm
04:00 AM 60.1°F15.6°C 57.8°F14.3°C 92% 2.0 mph NW3.2 kmh NW 3.8 mph6.1 kmh 30.20 in1022.7 mb 0.00 in0.0 mm 0.00 in0.0 mm 0.00 in0.0 mm
04:30 AM 62.1°F16.7°C 59.4°F15.2°C 91% 2.2 mph N3.5 kmh N 3.8 mph6.1 kmh 30.19 in1022.4 mb 0.00 in0.0 mm 0.00 in0.0 mm 0.00 in0.0 mm
04:45 AM 64.4°F18.0°C 58.1°F14.5°C 80% 2.9 mph WNW4.7 kmh WNW 3.8 mph6.1 kmh 30.20 in1022.7 mb 0.00 in0.0 mm 0.00 in0.0 mm 0.00 in0.0 mm
05:00 AM 65.8°F18.8°C 57.0°F13.9°C 73% 3.0 mph N4.8 kmh N 6.0 mph9.7 kmh 30.20 in1022.7 mb 0.00 in0.0 mm 0.00 in0.0 mm 0.00 in0.0 mm
05:15 AM 68.4°F20.2°C 58.2°F14.6°C 70% 3.7 mph WSW6.0 kmh WSW 6.0 mph9.7 kmh 30.20 in1022.7 mb 0.00 in0.0 mm 0.00 in0.0 mm 0.00 in0.0 mm
05:30 AM 65.5°F18.6°C 56.2°F13.4°C 72% 2.8 mph NW4.5 kmh NW 4.5 mph7.2 kmh 30.20 in1022.7 mb 0.00 in0.0 mm 0.00 in0.0 mm 0.00 in0.0 mm
05:45 AM 68.9°F20.5°C 57.1°F13.9°C 66% 3.5 mph NNW5.6 kmh NNW 6.0 mph9.7 kmh 30.20 in1022.7 mb 0.00 in0.0 mm 0.00 in0.0 mm 0.00 in0.0 mm
06:00 AM 71.2°F21.8°C 57.1°F13.9°C 61% 4.2 mph W6.8 kmh W 5.4 mph8.7 kmh 30.20 in1022.7 mb 0.00 in0.0 mm 0.00 in0.0 mm 0.00 in0.0 mm
06:15 AM 71.4°F21.9°C 57.3°F14.1°C 61% 4.1 mph N6.6 kmh N 6.9 mph11.1 kmh 30.20 in1022.7 mb 0.00 in0.0 mm 0.00 in0.0 mm 0.00 in0.0 mm
06:45 AM 74.5°F23.6°C 58.8°F14.9°C 58% 2.8 mph ENE4.5 kmh ENE 3.1 mph5.0 kmh 30.21 in1023.0 mb 0.00 in0.0 mm 0.00 in0.0 mm 0.00 in0.0 mm
07:15 AM 73.9°F23.3°C 58.3°F14.6°C 58% 2.7 mph N4.3 kmh N 3.1 mph5.0 kmh 30.22 in1023.4 mb 0.00 in0.0 mm 0.00 in0.0 mm 0.00 in0.0 mm
07:45 AM 75.0°F23.9°C 59.8°F15.4°C 59% 4.4 mph WSW7.1 kmh WSW 6.9 mph11.1 kmh 30.22 in1023.4 mb 0.00 in0.0 mm 0.00 in0.0 mm 0.00 in0.0 mm
08:15 AM 74.7°F23.7°C 60.4°F15.8°C 61% 3.3 mph W5.3 kmh W 6.9 mph11.1 kmh 30.22 in1023.4 mb 0.00 in0.0 mm 0.00 in0.0 mm 0.00 in0.0 mm
08:30 AM 75.7°F24.3°C 60.4°F15.8°C 59% 2.7 mph SSW4.3 kmh SSW 9.2 mph14.8 kmh 30.23 in1023.7 mb 0.00 in0.0 mm 0.00 in0.0 mm 0.00 in0.0 mm
08:45 AM 75.7°F24.3°C 60.4°F15.8°C 59% 3.6 mph SSE5.8 kmh SSE 6.0 mph9.7 kmh 30.23 in1023.7 mb 0.00 in0.0 mm 0.00 in0.0 mm 0.00 in0.0 mm
09:00 AM 75.2°F24.0°C 60.9°F16.1°C 61% 3.6 mph N5.8 kmh N 6.0 mph9.7 kmh 30.22 in1023.4 mb 0.00 in0.0 mm 0.00 in0.0 mm 0.00 in0.0 mm
09:15 AM 75.0°F23.9°C 61.6°F16.4°C 63% 3.2 mph NE5.1 kmh NE 6.0 mph9.7 kmh 30.22 in1023.4 mb 0.00 in0.0 mm 0.00 in0.0 mm 0.00 in0.0 mm
09:45 AM 79.0°F26.1°C 63.0°F17.2°C 58% 4.5 mph W7.2 kmh W 6.0 mph9.7 kmh 30.21 in1023.0 mb 0.00 in0.0 mm 0.00 in0.0 mm 0.00 in0.0 mm
10:00 AM 79.2°F26.2°C 63.2°F17.3°C 58% 5.0 mph SW8.0 kmh SW 8.3 mph13.4 kmh 30.22 in1023.4 mb 0.00 in0.0 mm 0.00 in0.0 mm 0.00 in0.0 mm
10:15 AM 81.3°F27.4°C 63.7°F17.6°C 55% 3.9 mph SE6.3 kmh SE 8.3 mph13.4 kmh 30.23 in1023.7 mb 0.00 in0.0 mm 0.00 in0.0 mm 0.00 in0.0 mm
10:45 AM 79.5°F26.4°C 64.0°F17.8°C 59% 4.6 mph WSW7.4 kmh WSW 8.3 mph13.4 kmh 30.24 in1024.0 mb 0.00 in0.0 mm 0.00 in0.0 mm 0.00 in0.0 mm
11:00 AM 81.9°F27.7°C 64.2°F17.9°C 55% 3.7 mph WSW6.0 kmh WSW 6.9 mph11.1 kmh 30.23 in1023.7 mb 0.00 in0.0 mm 0.00 in0.0 mm 0.00 in0.0 mm
11:15 AM 81.7°F27.6°C 63.5°F17.5°C 54% 4.7 mph SE7.6 kmh SE 8.3 mph13.4 kmh 30.23 in1023.7 mb 0.00 in0.0 mm 0.00 in0.0 mm 0.00 in0.0 mm
11:45 AM 79.3°F26.3°C 63.3°F17.4°C 58% 4.5 mph SW7.2 kmh SW 6.9 mph11.1 kmh 30.23 in1023.7 mb 0.00 in0.0 mm 0.00 in0.0 mm 0.00 in0.0 mm
12:00 PM 79.7°F26.5°C 64.1°F17.8°C 59% 4.3 mph SW6.9 kmh SW 6.9 mph11.1 kmh 30.23 in1023.7 mb 0.00 in0.0 mm 0.00 in0.0 mm 0.00 in0.0 mm
12:15 PM 79.0°F26.1°C 64.0°F17.8°C 60% 2.9 mph S4.7 kmh S 4.5 mph7.2 kmh 30.22 in1023.4 mb 0.00 in0.0 mm 0.00 in0.0 mm 0.00 in0.0 mm
12:45 PM 75.7°F24.3°C 62.3°F16.8°C 63% 2.9 mph SW4.7 kmh SW 6.0 mph9.7 kmh 30.22 in1023.4 mb 0.00 in0.0 mm 0.00 in0.0 mm 0.00 in0.0 mm
01:00 PM 81.7°F27.6°C 65.5°F18.6°C 58% 3.3 mph SW5.3 kmh SW 4.5 mph7.2 kmh 30.22 in1023.4 mb 0.00 in0.0 mm 0.00 in0.0 mm 0.00 in0.0 mm
01:15 PM 82.8°F28.2°C 63.9°F17.7°C 53% 3.7 mph ESE6.0 kmh ESE 5.4 mph8.7 kmh 30.21 in1023.0 mb 0.00 in0.0 mm 0.00 in0.0 mm 0.00 in0.0 mm
01:30 PM 80.8°F27.1°C 62.6°F17.0°C 54% 4.4 mph SW7.1 kmh SW 10.7 mph17.2 kmh 30.22 in1023.4 mb 0.00 in0.0 mm 0.00 in0.0 mm 0.00 in0.0 mm
01:45 PM 82.8°F28.2°C 63.9°F17.7°C 53% 3.3 mph S5.3 kmh S 6.9 mph11.1 kmh 30.22 in1023.4 mb 0.00 in0.0 mm 0.00 in0.0 mm 0.00 in0.0 mm
02:00 PM 83.1°F28.4°C 64.3°F17.9°C 53% 4.0 mph SE6.4 kmh SE 6.0 mph9.7 kmh 30.22 in1023.4 mb 0.00 in0.0 mm 0.00 in0.0 mm 0.00 in0.0 mm
02:30 PM 82.6°F28.1°C 63.8°F17.7°C 53% 4.3 mph WSW6.9 kmh WSW 8.3 mph13.4 kmh 30.21 in1023.0 mb 0.00 in0.0 mm 0.00 in0.0 mm 0.00 in0.0 mm
02:45 PM 79.5°F26.4°C 62.0°F16.7°C 55% 4.3 mph S6.9 kmh S 7.6 mph12.2 kmh 30.21 in1023.0 mb 0.00 in0.0 mm 0.00 in0.0 mm 0.00 in0.0 mm
03:00 PM 79.0°F26.1°C 62.5°F16.9°C 57% 3.7 mph ESE6.0 kmh ESE 6.9 mph11.1 kmh 30.22 in1023.4 mb 0.00 in0.0 mm 0.00 in0.0 mm 0.00 in0.0 mm
03:15 PM 79.5°F26.4°C 63.0°F17.2°C 57% 3.6 mph NW5.8 kmh NW 5.4 mph8.7 kmh 30.21 in1023.0 mb 0.00 in0.0 mm 0.00 in0.0 mm 0.00 in0.0 mm
03:30 PM 78.6°F25.9°C 62.6°F17.0°C 58% 4.6 mph W7.4 kmh W 9.2 mph14.8 kmh 30.21 in1023.0 mb 0.00 in0.0 mm 0.00 in0.0 mm 0.00 in0.0 mm
03:45 PM 77.2°F25.1°C 62.3°F16.8°C 60% 3.5 mph SE5.6 kmh SE 5.4 mph8.7 kmh 30.21 in1023.0 mb 0.00 in0.0 mm 0.00 in0.0 mm 0.00 in0.0 mm
04:00 PM 75.7°F24.3°C 61.4°F16.3°C 61% 3.1 mph NNW5.0 kmh NNW 7.6 mph12.2 kmh 30.21 in1023.0 mb 0.00 in0.0 mm 0.00 in0.0 mm 0.00 in0.0 mm
04:15 PM 75.7°F24.3°C 61.8°F16.6°C 62% 3.6 mph SE5.8 kmh SE 6.0 mph9.7 kmh 30.21 in1023.0 mb 0.00 in0.0 mm 0.00 in0.0 mm 0.00 in0.0 mm
04:30 PM 75.7°F24.3°C 61.4°F16.3°C 61% 3.4 mph SE5.5 kmh SE 5.4 mph8.7 kmh 30.22 in1023.4 mb 0.00 in0.0 mm 0.00 in0.0 mm 0.00 in0.0 mm
04:45 PM 75.7°F24.3°C 61.8°F16.6°C 62% 3.4 mph N5.5 kmh N 6.0 mph9.7 kmh 30.22 in1023.4 mb 0.00 in0.0 mm 0.00 in0.0 mm 0.00 in0.0 mm
05:00 PM 77.2°F25.1°C 62.3°F16.8°C 60% 2.9 mph S4.7 kmh S 5.4 mph8.7 kmh 30.21 in1023.0 mb 0.00 in0.0 mm 0.00 in0.0 mm 0.00 in0.0 mm
05:15 PM 75.7°F24.3°C 59.9°F15.5°C 58% 3.5 mph SE5.6 kmh SE 5.4 mph8.7 kmh 30.21 in1023.0 mb 0.00 in0.0 mm 0.00 in0.0 mm 0.00 in0.0 mm
05:30 PM 74.7°F23.7°C 60.8°F16.0°C 62% 3.6 mph W5.8 kmh W 5.4 mph8.7 kmh 30.21 in1023.0 mb 0.00 in0.0 mm 0.00 in0.0 mm 0.00 in0.0 mm
05:45 PM 74.1°F23.4°C 60.8°F16.0°C 63% 3.6 mph SSE5.8 kmh SSE 7.6 mph12.2 kmh 30.21 in1023.0 mb 0.00 in0.0 mm 0.00 in0.0 mm 0.00 in0.0 mm
06:00 PM 72.9°F22.7°C 60.0°F15.6°C 64% 1.7 mph N2.7 kmh N 4.5 mph7.2 kmh 30.21 in1023.0 mb 0.00 in0.0 mm 0.00 in0.0 mm 0.00 in0.0 mm
06:15 PM 72.1°F22.3°C 60.2°F15.7°C 66% 3.7 mph E6.0 kmh E 6.9 mph11.1 kmh 30.22 in1023.4 mb 0.00 in0.0 mm 0.00 in0.0 mm 0.00 in0.0 mm
06:30 PM 72.3°F22.4°C 61.2°F16.2°C 68% 2.0 mph S3.2 kmh S 3.1 mph5.0 kmh 30.22 in1023.4 mb 0.00 in0.0 mm 0.00 in0.0 mm 0.00 in0.0 mm
06:45 PM 72.1°F22.3°C 61.0°F16.1°C 68% 1.8 mph SW2.9 kmh SW 3.1 mph5.0 kmh 30.21 in1023.0 mb 0.00 in0.0 mm 0.00 in0.0 mm 0.00 in0.0 mm
07:00 PM 72.0°F22.2°C 61.3°F16.3°C 69% 2.7 mph S4.3 kmh S 4.5 mph7.2 kmh 30.22 in1023.4 mb 0.00 in0.0 mm 0.00 in0.0 mm 0.00 in0.0 mm
07:30 PM 70.9°F21.6°C 62.2°F16.8°C 74% 2.6 mph SSE4.2 kmh SSE 5.4 mph8.7 kmh 30.22 in1023.4 mb 0.00 in0.0 mm 0.00 in0.0 mm 0.00 in0.0 mm
07:45 PM 70.2°F21.2°C 61.9°F16.6°C 75% 2.3 mph WSW3.7 kmh WSW 3.8 mph6.1 kmh 30.23 in1023.7 mb 0.00 in0.0 mm 0.00 in0.0 mm 0.00 in0.0 mm
08:00 PM 69.1°F20.6°C 61.6°F16.4°C 77% 2.5 mph NW4.0 kmh NW 5.4 mph8.7 kmh 30.23 in1023.7 mb 0.00 in0.0 mm 0.00 in0.0 mm 0.00 in0.0 mm
08:15 PM 68.7°F20.4°C 62.0°F16.7°C 79% 1.9 mph N3.1 kmh N 3.1 mph5.0 kmh 30.22 in1023.4 mb 0.00 in0.0 mm 0.00 in0.0 mm 0.00 in0.0 mm
08:30 PM 67.3°F19.6°C 61.3°F16.3°C 81% 1.2 mph NW1.9 kmh NW 3.1 mph5.0 kmh 30.23 in1023.7 mb 0.00 in0.0 mm 0.00 in0.0 mm 0.00 in0.0 mm
08:45 PM 66.7°F19.3°C 61.1°F16.2°C 82% 1.0 mph N1.6 kmh N 1.6 mph2.6 kmh 30.23 in1023.7 mb 0.00 in0.0 mm 0.00 in0.0 mm 0.00 in0.0 mm
09:00 PM 66.2°F19.0°C 60.9°F16.1°C 83% 0.6 mph NW1.0 kmh NW 1.6 mph2.6 kmh 30.23 in1023.7 mb 0.00 in0.0 mm 0.00 in0.0 mm 0.00 in0.0 mm
09:15 PM 65.7°F18.7°C 61.1°F16.2°C 85% 0.6 mph N1.0 kmh N 1.6 mph2.6 kmh 30.23 in1023.7 mb 0.00 in0.0 mm 0.00 in0.0 mm 0.00 in0.0 mm
09:45 PM 64.4°F18.0°C 60.1°F15.6°C 86% 1.5 mph NW2.4 kmh NW 3.8 mph6.1 kmh 30.23 in1023.7 mb 0.00 in0.0 mm 0.00 in0.0 mm 0.00 in0.0 mm
10:00 PM 64.0°F17.8°C 60.1°F15.6°C 87% 1.4 mph NW2.3 kmh NW 1.6 mph2.6 kmh 30.24 in1024.0 mb 0.00 in0.0 mm 0.00 in0.0 mm 0.00 in0.0 mm
10:15 PM 63.9°F17.7°C 59.9°F15.5°C 87% 1.3 mph SSE2.1 kmh SSE 3.1 mph5.0 kmh 30.24 in1024.0 mb 0.00 in0.0 mm 0.00 in0.0 mm 0.00 in0.0 mm
10:30 PM 63.3°F17.4°C 59.4°F15.2°C 87% 1.3 mph W2.1 kmh W 3.8 mph6.1 kmh 30.24 in1024.0 mb 0.00 in0.0 mm 0.00 in0.0 mm 0.00 in0.0 mm
10:45 PM 62.6°F17.0°C 59.0°F15.0°C 88% 1.0 mph W1.6 kmh W 2.2 mph3.5 kmh 30.23 in1023.7 mb 0.00 in0.0 mm 0.00 in0.0 mm 0.00 in0.0 mm
11:00 PM 62.2°F16.8°C 59.3°F15.2°C 90% 1.0 mph NW1.6 kmh NW 1.6 mph2.6 kmh 30.23 in1023.7 mb 0.00 in0.0 mm 0.00 in0.0 mm 0.00 in0.0 mm
11:15 PM 62.1°F16.7°C 59.1°F15.1°C 90% 2.2 mph SW3.5 kmh SW 3.1 mph5.0 kmh 30.23 in1023.7 mb 0.00 in0.0 mm 0.00 in0.0 mm 0.00 in0.0 mm
11:30 PM 61.5°F16.4°C 58.6°F14.8°C 90% 0.8 mph NNW1.3 kmh NNW 1.6 mph2.6 kmh 30.22 in1023.4 mb 0.00 in0.0 mm 0.00 in0.0 mm 0.00 in0.0 mm
11:45 PM 60.6°F15.9°C 58.0°F14.4°C 91% 0.9 mph NNW1.4 kmh NNW 1.6 mph2.6 kmh 30.22 in1023.4 mb 0.00 in0.0 mm 0.00 in0.0 mm 0.00 in0.0 mm